Time;durP1;ratioP1;P1;durP2;ratioP2;P2;SDS_P1;SDS_P2;PMS_P1;PMS_P2;Temp;Humidity;BMP_temperature;BMP_pressure;BME280_temperature;BME280_humidity;BME280_pressure;Samples;Min_cycle;Max_cycle;Signal;HPM_P1;HPM_P2
2022/04/23 00:00:14;;;;;;;16.10;11.07;;;;;;;;;;5037734;28;20229;-65
2022/04/23 00:02:42;;;;;;;15.23;12.23;;;;;;;;;;5055701;28;20657;-65
2022/04/23 00:05:08;;;;;;;11.77;10.30;;;;;;;;;;5055427;28;20174;-65
2022/04/23 00:07:34;;;;;;;14.33;11.37;;;;;;;;;;5055404;28;20693;-65
2022/04/23 00:10:00;;;;;;;15.57;11.13;;;;;;;;;;5054815;28;20187;-65
2022/04/23 00:12:26;;;;;;;14.87;12.43;;;;;;;;;;5055256;28;20178;-65
2022/04/23 00:14:53;;;;;;;15.33;12.13;;;;;;;;;;5037697;28;20331;-65
2022/04/23 00:17:19;;;;;;;14.10;11.40;;;;;;;;;;5037254;28;20344;-65
2022/04/23 00:19:46;;;;;;;17.63;11.33;;;;;;;;;;5036980;28;20733;-65
2022/04/23 00:22:13;;;;;;;14.33;11.53;;;;;;;;;;5055001;28;20175;-66
2022/04/23 00:24:39;;;;;;;14.37;12.43;;;;;;;;;;5054548;28;20651;-65
2022/04/23 00:27:06;;;;;;;14.30;11.93;;;;;;;;;;5036142;28;20443;-65
2022/04/23 00:29:32;;;;;;;13.03;11.00;;;;;;;;;;5054494;28;20170;-65
2022/04/23 00:31:58;;;;;;;16.67;12.30;;;;;;;;;;5036286;28;20179;-64
2022/04/23 00:34:25;;;;;;;15.37;12.27;;;;;;;;;;5054524;28;20174;-65
2022/04/23 00:36:51;;;;;;;17.43;12.73;;;;;;;;;;5054193;28;20292;-65
2022/04/23 00:39:17;;;;;;;10.83;9.13;;;;;;;;;;5054284;28;20709;-64
2022/04/23 00:41:45;;;;;;;18.27;13.30;;;;;;;;;;5054776;28;20174;-64
2022/04/23 00:44:11;;;;;;;16.47;12.93;;;;;;;;;;5036578;28;20186;-65
2022/04/23 00:46:37;;;;;;;15.30;12.30;;;;;;;;;;5053988;28;20224;-64
2022/04/23 00:49:05;;;;;;;16.00;12.23;;;;;;;;;;5054523;28;20175;-64
2022/04/23 00:51:32;;;;;;;15.60;12.40;;;;;;;;;;5054150;28;20170;-64
2022/04/23 00:53:59;;;;;;;16.00;12.00;;;;;;;;;;5036296;28;20186;-65
2022/04/23 00:56:25;;;;;;;13.87;11.73;;;;;;;;;;5054309;28;20573;-64
2022/04/23 00:58:52;;;;;;;18.37;13.07;;;;;;;;;;5054270;28;20178;-64
2022/04/23 01:01:22;;;;;;;16.53;13.30;;;;;;;;;;5036068;28;20178;-64
2022/04/23 01:03:48;;;;;;;17.07;13.23;;;;;;;;;;5036004;28;20171;-64
2022/04/23 01:06:14;;;;;;;18.40;11.93;;;;;;;;;;5053694;28;20202;-65
2022/04/23 01:08:40;;;;;;;17.43;12.97;;;;;;;;;;5054342;28;20257;-64
2022/04/23 01:11:06;;;;;;;18.50;13.43;;;;;;;;;;5053796;28;20179;-64
2022/04/23 01:13:33;;;;;;;15.77;12.37;;;;;;;;;;5036021;28;20228;-64
2022/04/23 01:16:04;;;;;;;17.70;14.27;;;;;;;;;;5035822;28;20206;-64
2022/04/23 01:18:30;;;;;;;18.93;13.90;;;;;;;;;;5054030;28;20594;-64
2022/04/23 01:20:57;;;;;;;13.97;11.90;;;;;;;;;;5052575;28;20201;-64
2022/04/23 01:23:24;;;;;;;17.60;12.90;;;;;;;;;;5053597;28;20178;-64
2022/04/23 01:25:52;;;;;;;14.83;11.63;;;;;;;;;;5035693;28;20190;-64
2022/04/23 01:28:19;;;;;;;17.40;13.73;;;;;;;;;;5053761;28;20262;-65
2022/04/23 01:30:47;;;;;;;14.50;11.67;;;;;;;;;;5035626;28;20178;-64
2022/04/23 01:33:13;;;;;;;20.03;13.83;;;;;;;;;;5053538;28;20205;-64
2022/04/23 01:35:39;;;;;;;14.37;12.43;;;;;;;;;;5053565;28;20674;-65
2022/04/23 01:38:05;;;;;;;17.57;14.10;;;;;;;;;;5053780;28;20627;-64
2022/04/23 01:40:31;;;;;;;17.13;14.13;;;;;;;;;;5035388;28;20678;-64
2022/04/23 01:42:57;;;;;;;16.83;13.50;;;;;;;;;;5053300;28;20705;-64
2022/04/23 01:45:23;;;;;;;15.87;12.90;;;;;;;;;;5053556;28;20697;-65
2022/04/23 01:47:49;;;;;;;17.83;14.20;;;;;;;;;;5053781;28;20167;-65
2022/04/23 01:50:15;;;;;;;17.43;14.03;;;;;;;;;;5035567;28;20232;-64
2022/04/23 01:52:41;;;;;;;22.37;14.97;;;;;;;;;;5035655;28;20224;-64
2022/04/23 01:55:07;;;;;;;18.43;14.67;;;;;;;;;;5053418;28;20178;-64
2022/04/23 01:57:33;;;;;;;17.40;13.07;;;;;;;;;;5035582;28;20208;-65
2022/04/23 01:59:59;;;;;;;19.13;14.73;;;;;;;;;;5035469;28;20206;-64
2022/04/23 02:02:25;;;;;;;19.83;14.63;;;;;;;;;;5035412;28;20189;-64
2022/04/23 02:04:51;;;;;;;22.37;16.73;;;;;;;;;;5035743;28;20174;-64
2022/04/23 02:07:17;;;;;;;20.93;16.03;;;;;;;;;;5035518;28;20203;-64
2022/04/23 02:09:42;;;;;;;22.67;16.73;;;;;;;;;;5054984;28;20217;-65
2022/04/23 02:12:09;;;;;;;21.13;16.17;;;;;;;;;;5054168;28;20183;-64
2022/04/23 02:14:35;;;;;;;22.57;16.73;;;;;;;;;;5054949;28;20194;-65
2022/04/23 02:17:03;;;;;;;24.17;17.67;;;;;;;;;;5054558;28;20195;-65
2022/04/23 02:19:29;;;;;;;24.23;17.40;;;;;;;;;;5054647;28;20245;-65
2022/04/23 02:21:55;;;;;;;23.60;18.20;;;;;;;;;;5054625;28;20631;-65
2022/04/23 02:24:21;;;;;;;22.90;18.40;;;;;;;;;;5055896;28;20639;-66
2022/04/23 02:26:47;;;;;;;19.40;15.40;;;;;;;;;;5058423;28;20202;-65
2022/04/23 02:29:13;;;;;;;22.63;17.47;;;;;;;;;;5058152;28;20179;-65
2022/04/23 02:31:39;;;;;;;23.47;18.20;;;;;;;;;;5060225;28;20265;-65
2022/04/23 02:34:05;;;;;;;26.30;17.80;;;;;;;;;;5043183;28;20182;-65
2022/04/23 02:36:31;;;;;;;23.83;16.23;;;;;;;;;;5060679;28;20251;-65
2022/04/23 02:38:58;;;;;;;25.10;18.87;;;;;;;;;;5058046;28;20214;-66
2022/04/23 02:41:24;;;;;;;24.43;19.30;;;;;;;;;;5040118;28;20189;-65
2022/04/23 02:43:50;;;;;;;25.03;19.20;;;;;;;;;;5057675;28;20167;-65
2022/04/23 02:46:16;;;;;;;25.03;18.17;;;;;;;;;;5056625;28;20226;-65
2022/04/23 02:48:44;;;;;;;25.17;19.20;;;;;;;;;;5038986;28;20205;-64
2022/04/23 02:51:15;;;;;;;27.17;18.87;;;;;;;;;;5056723;28;20266;-65
2022/04/23 02:53:41;;;;;;;25.63;19.73;;;;;;;;;;5056490;28;20194;-66
2022/04/23 02:56:13;;;;;;;25.27;18.90;;;;;;;;;;5056224;28;20685;-65
2022/04/23 02:58:39;;;;;;;17.27;13.97;;;;;;;;;;5039017;28;20646;-64
2022/04/23 03:01:05;;;;;;;25.17;18.60;;;;;;;;;;5038234;28;20202;-65
2022/04/23 03:03:31;;;;;;;26.73;18.80;;;;;;;;;;5038724;28;20660;-65
2022/04/23 03:05:57;;;;;;;22.53;17.93;;;;;;;;;;5038904;28;20199;-65
2022/04/23 03:08:24;;;;;;;23.40;18.80;;;;;;;;;;5038449;28;20236;-65
2022/04/23 03:10:50;;;;;;;26.63;18.90;;;;;;;;;;5056394;28;20186;-65
2022/04/23 03:13:16;;;;;;;25.43;19.23;;;;;;;;;;5056432;28;20179;-65
2022/04/23 03:15:44;;;;;;;24.53;18.80;;;;;;;;;;5055893;28;20198;-65
2022/04/23 03:18:11;;;;;;;23.43;16.73;;;;;;;;;;5056007;28;20175;-65
2022/04/23 03:20:38;;;;;;;26.20;20.20;;;;;;;;;;5038066;28;20206;-65
2022/04/23 03:23:04;;;;;;;25.60;18.80;;;;;;;;;;5037954;28;20240;-65
2022/04/23 03:25:34;;;;;;;24.03;18.00;;;;;;;;;;5038131;28;20202;-64
2022/04/23 03:28:00;;;;;;;26.07;20.10;;;;;;;;;;5055911;28;20218;-65
2022/04/23 03:30:27;;;;;;;23.77;18.13;;;;;;;;;;5037705;28;20220;-64
2022/04/23 03:32:53;;;;;;;25.40;18.53;;;;;;;;;;5056289;28;20183;-65
2022/04/23 03:35:19;;;;;;;27.07;20.03;;;;;;;;;;5055563;28;20724;-65
2022/04/23 03:37:45;;;;;;;25.43;20.13;;;;;;;;;;5055617;28;20179;-65
2022/04/23 03:40:11;;;;;;;26.33;19.27;;;;;;;;;;5037842;28;20202;-65
2022/04/23 03:42:37;;;;;;;24.67;19.27;;;;;;;;;;5037235;28;20227;-65
2022/04/23 03:45:04;;;;;;;26.07;18.73;;;;;;;;;;5054968;28;20191;-64
2022/04/23 03:47:34;;;;;;;24.10;17.17;;;;;;;;;;5055556;28;20197;-65
2022/04/23 03:50:04;;;;;;;24.27;18.23;;;;;;;;;;5038313;28;20559;-66
2022/04/23 03:52:30;;;;;;;22.63;17.30;;;;;;;;;;5055698;28;20170;-66
2022/04/23 03:54:56;;;;;;;26.63;20.10;;;;;;;;;;5055216;28;20186;-65
2022/04/23 03:57:22;;;;;;;23.97;17.30;;;;;;;;;;5056037;28;20182;-65
2022/04/23 03:59:48;;;;;;;24.17;17.87;;;;;;;;;;5055690;28;20682;-65
2022/04/23 04:02:14;;;;;;;26.30;18.27;;;;;;;;;;5056373;28;20538;-65
2022/04/23 04:04:41;;;;;;;26.47;19.27;;;;;;;;;;5055598;28;20181;-65
2022/04/23 04:07:07;;;;;;;26.20;18.77;;;;;;;;;;5037870;28;20238;-65
2022/04/23 04:09:33;;;;;;;26.83;21.50;;;;;;;;;;5037593;28;20183;-65
2022/04/23 04:12:02;;;;;;;26.40;21.17;;;;;;;;;;5038838;28;20256;-65
2022/04/23 04:14:31;;;;;;;25.80;18.07;;;;;;;;;;5058223;28;20186;-65
2022/04/23 04:17:01;;;;;;;27.63;19.57;;;;;;;;;;5045549;28;20221;-65
2022/04/23 04:19:28;;;;;;;26.60;20.20;;;;;;;;;;5050813;28;20198;-64
2022/04/23 04:21:54;;;;;;;27.10;19.77;;;;;;;;;;5051674;28;20183;-65
2022/04/23 04:24:20;;;;;;;23.80;17.27;;;;;;;;;;5068506;28;20170;-65
2022/04/23 04:26:47;;;;;;;24.17;19.77;;;;;;;;;;5057301;28;20194;-64
2022/04/23 04:29:13;;;;;;;27.47;20.77;;;;;;;;;;5038123;28;20174;-65
2022/04/23 04:31:51;;;;;;;23.33;18.70;;;;;;;;;;5055304;28;20749;-65
2022/04/23 04:34:17;;;;;;;26.90;20.70;;;;;;;;;;5036705;28;20225;-63
2022/04/23 04:36:44;;;;;;;28.17;20.77;;;;;;;;;;5054742;28;20753;-64
2022/04/23 04:39:10;;;;;;;28.37;20.03;;;;;;;;;;5054411;28;20548;-65
2022/04/23 04:41:37;;;;;;;24.77;19.70;;;;;;;;;;5054529;28;20257;-64
2022/04/23 04:44:03;;;;;;;26.80;20.27;;;;;;;;;;5036353;28;20182;-65
2022/04/23 04:46:29;;;;;;;23.27;18.00;;;;;;;;;;5054574;28;20210;-65
2022/04/23 04:48:55;;;;;;;27.53;20.37;;;;;;;;;;5037555;28;20184;-65
2022/04/23 04:51:21;;;;;;;25.53;18.60;;;;;;;;;;5054405;28;20175;-64
2022/04/23 04:53:47;;;;;;;25.63;19.90;;;;;;;;;;5036158;28;20236;-65
2022/04/23 04:56:13;;;;;;;24.67;19.53;;;;;;;;;;5053874;28;20198;-65
2022/04/23 04:58:43;;;;;;;24.43;19.33;;;;;;;;;;5036219;28;20185;-66
2022/04/23 05:01:09;;;;;;;28.60;19.63;;;;;;;;;;5036251;28;20579;-65
2022/04/23 05:03:35;;;;;;;29.07;19.30;;;;;;;;;;5036193;28;20703;-65
2022/04/23 05:06:01;;;;;;;24.97;19.47;;;;;;;;;;5035930;28;20194;-63
2022/04/23 05:08:27;;;;;;;26.23;19.03;;;;;;;;;;5054892;28;20170;-66
2022/04/23 05:10:53;;;;;;;24.00;19.10;;;;;;;;;;5054043;28;20189;-65
2022/04/23 05:13:19;;;;;;;27.50;20.63;;;;;;;;;;5036238;28;20190;-63
2022/04/23 05:15:45;;;;;;;28.47;20.73;;;;;;;;;;5036019;28;20209;-65
2022/04/23 05:18:12;;;;;;;29.53;21.13;;;;;;;;;;5036122;28;20559;-65
2022/04/23 05:20:37;;;;;;;28.70;19.90;;;;;;;;;;5053892;28;20202;-63
2022/04/23 05:23:03;;;;;;;29.13;21.27;;;;;;;;;;5036140;28;20185;-64
2022/04/23 05:25:29;;;;;;;29.83;20.60;;;;;;;;;;5053464;28;20616;-65
2022/04/23 05:27:55;;;;;;;27.97;20.17;;;;;;;;;;5053677;28;20182;-65
2022/04/23 05:30:21;;;;;;;27.43;19.13;;;;;;;;;;5035874;28;20186;-64
2022/04/23 05:32:47;;;;;;;20.60;16.20;;;;;;;;;;5053871;28;20221;-65
2022/04/23 05:35:13;;;;;;;27.20;20.07;;;;;;;;;;5053522;28;20175;-68
2022/04/23 05:37:40;;;;;;;19.73;16.03;;;;;;;;;;5053645;28;20178;-65
2022/04/23 05:40:06;;;;;;;24.50;19.53;;;;;;;;;;5053967;28;20320;-64
2022/04/23 05:42:32;;;;;;;25.43;19.40;;;;;;;;;;5035698;28;20274;-65
2022/04/23 05:44:58;;;;;;;26.87;17.93;;;;;;;;;;5035613;28;20218;-64
2022/04/23 05:47:24;;;;;;;21.37;16.93;;;;;;;;;;5053634;28;20281;-65
2022/04/23 05:49:50;;;;;;;23.80;18.90;;;;;;;;;;5053506;28;20178;-65
2022/04/23 05:52:16;;;;;;;23.73;18.80;;;;;;;;;;5053923;28;20178;-65
2022/04/23 05:54:42;;;;;;;27.30;18.23;;;;;;;;;;5035633;28;20272;-64
2022/04/23 05:57:08;;;;;;;23.13;16.30;;;;;;;;;;5035400;28;20682;-66
2022/04/23 05:59:34;;;;;;;20.63;15.73;;;;;;;;;;5053540;28;20743;-65
2022/04/23 06:02:00;;;;;;;23.40;16.90;;;;;;;;;;5035406;28;20189;-65
2022/04/23 06:04:27;;;;;;;21.70;16.60;;;;;;;;;;5070964;22;20329;-67
2022/04/23 06:06:53;;;;;;;25.57;18.63;;;;;;;;;;5037021;28;20170;-67
2022/04/23 06:09:19;;;;;;;22.00;18.27;;;;;;;;;;5057946;28;20175;-67
2022/04/23 06:11:45;;;;;;;20.77;16.93;;;;;;;;;;5039558;28;20622;-67
2022/04/23 06:14:11;;;;;;;19.77;16.37;;;;;;;;;;5057367;28;20578;-67
2022/04/23 06:16:37;;;;;;;21.47;16.80;;;;;;;;;;5057363;28;20187;-67
2022/04/23 06:19:04;;;;;;;24.13;18.13;;;;;;;;;;5056943;28;20232;-67
2022/04/23 06:21:29;;;;;;;22.23;16.70;;;;;;;;;;5056885;28;20658;-67
2022/04/23 06:23:55;;;;;;;20.43;16.20;;;;;;;;;;5039452;28;20195;-67
2022/04/23 06:26:22;;;;;;;22.60;17.83;;;;;;;;;;5039393;28;20182;-68
2022/04/23 06:28:48;;;;;;;23.17;17.80;;;;;;;;;;5056779;28;20175;-67
2022/04/23 06:31:14;;;;;;;21.90;17.20;;;;;;;;;;5039320;28;20320;-68
2022/04/23 06:33:42;;;;;;;22.43;17.47;;;;;;;;;;5039361;28;20309;-68
2022/04/23 06:36:10;;;;;;;19.73;14.97;;;;;;;;;;5038913;28;20565;-67
2022/04/23 06:38:36;;;;;;;19.50;16.80;;;;;;;;;;5057388;28;20643;-66
2022/04/23 06:41:02;;;;;;;23.50;18.50;;;;;;;;;;5057237;28;20574;-68
2022/04/23 06:43:28;;;;;;;23.30;15.70;;;;;;;;;;5038452;28;20178;-68
2022/04/23 06:45:54;;;;;;;20.17;15.83;;;;;;;;;;5056683;28;20197;-67
2022/04/23 06:48:20;;;;;;;23.60;17.50;;;;;;;;;;5056978;28;20553;-68
2022/04/23 06:50:46;;;;;;;19.83;16.20;;;;;;;;;;5038584;28;20185;-68
2022/04/23 06:53:11;;;;;;;21.40;15.77;;;;;;;;;;5056889;28;20182;-68
2022/04/23 06:55:37;;;;;;;21.23;17.03;;;;;;;;;;5038910;28;20251;-67
2022/04/23 06:58:03;;;;;;;21.00;16.03;;;;;;;;;;5038589;28;20178;-67
2022/04/23 07:00:30;;;;;;;20.57;16.37;;;;;;;;;;5056418;28;20205;-69
2022/04/23 07:02:56;;;;;;;20.97;15.90;;;;;;;;;;5038529;28;20185;-67
2022/04/23 07:05:22;;;;;;;21.30;17.63;;;;;;;;;;5038057;28;20245;-67
2022/04/23 07:08:01;;;;;;;19.97;15.87;;;;;;;;;;5037975;28;20186;-68
2022/04/23 07:10:28;;;;;;;23.27;18.00;;;;;;;;;;5055815;28;20206;-67
2022/04/23 07:12:55;;;;;;;17.60;15.03;;;;;;;;;;5055909;28;20265;-67
2022/04/23 07:15:22;;;;;;;16.27;12.50;;;;;;;;;;5055725;28;20198;-67
2022/04/23 07:17:48;;;;;;;17.83;15.20;;;;;;;;;;5054845;28;20199;-67
2022/04/23 07:20:16;;;;;;;18.57;15.60;;;;;;;;;;5037482;28;20213;-67
2022/04/23 07:24:03;;;;;;;18.20;14.67;;;;;;;;;;5037845;28;20201;-66
2022/04/23 07:25:28;;;;;;;19.47;15.50;;;;;;;;;;5055139;28;20206;-67
2022/04/23 07:27:54;;;;;;;18.97;15.93;;;;;;;;;;5055494;28;20179;-66
2022/04/23 07:30:20;;;;;;;18.13;14.43;;;;;;;;;;5055405;28;20231;-67
2022/04/23 07:32:45;;;;;;;20.60;15.83;;;;;;;;;;5055467;28;20212;-66
2022/04/23 07:37:56;;;;;;;15.90;13.77;;;;;;;;;;5055565;28;20174;-66
2022/04/23 07:40:23;;;;;;;21.43;15.97;;;;;;;;;;5055036;28;20230;-66
2022/04/23 07:42:49;;;;;;;20.13;15.03;;;;;;;;;;5055210;28;20595;-66
2022/04/23 07:45:15;;;;;;;16.57;14.67;;;;;;;;;;5055019;28;20201;-67
2022/04/23 07:47:41;;;;;;;19.57;15.93;;;;;;;;;;5037164;28;20183;-68
2022/04/23 07:50:08;;;;;;;17.83;14.20;;;;;;;;;;5037285;28;20193;-67
2022/04/23 07:52:35;;;;;;;18.60;15.27;;;;;;;;;;5055133;28;20262;-66
2022/04/23 07:55:01;;;;;;;19.63;16.00;;;;;;;;;;5054707;28;20581;-66
2022/04/23 07:57:27;;;;;;;17.20;12.73;;;;;;;;;;5036788;28;20654;-67
2022/04/23 07:59:53;;;;;;;19.43;15.07;;;;;;;;;;5036918;28;20289;-66
2022/04/23 08:02:18;;;;;;;18.33;15.27;;;;;;;;;;5054567;28;20185;-66
2022/04/23 08:04:45;;;;;;;18.60;14.60;;;;;;;;;;5036720;28;20302;-66
2022/04/23 08:07:11;;;;;;;15.63;12.73;;;;;;;;;;5055002;28;20175;-67
2022/04/23 08:09:39;;;;;;;18.70;14.60;;;;;;;;;;5036728;28;20208;-66
2022/04/23 08:12:08;;;;;;;14.77;12.63;;;;;;;;;;5054556;28;20236;-66
2022/04/23 08:14:35;;;;;;;14.53;12.93;;;;;;;;;;5036741;28;20203;-66
2022/04/23 08:17:01;;;;;;;20.47;15.73;;;;;;;;;;5054505;28;20552;-66
2022/04/23 08:19:27;;;;;;;17.70;14.93;;;;;;;;;;5054363;28;20206;-66
2022/04/23 08:21:52;;;;;;;17.13;13.77;;;;;;;;;;5054779;28;20193;-66
2022/04/23 08:24:21;;;;;;;17.83;14.37;;;;;;;;;;5036630;28;20568;-65
2022/04/23 08:26:47;;;;;;;18.37;14.73;;;;;;;;;;5054655;28;20187;-66
2022/04/23 08:31:58;;;;;;;17.07;13.97;;;;;;;;;;5054776;28;20174;-66
2022/04/23 08:34:23;;;;;;;14.77;12.00;;;;;;;;;;5054030;28;20574;-65
2022/04/23 08:36:50;;;;;;;22.93;15.77;;;;;;;;;;5054320;28;20178;-65
2022/04/23 08:39:16;;;;;;;20.30;15.83;;;;;;;;;;5054352;28;20179;-65
2022/04/23 08:41:43;;;;;;;15.73;12.67;;;;;;;;;;5053982;28;20171;-65
2022/04/23 08:44:09;;;;;;;19.93;15.23;;;;;;;;;;5054190;28;20615;-66
2022/04/23 08:46:39;;;;;;;20.07;15.90;;;;;;;;;;5037043;28;20198;-66
2022/04/23 08:49:13;;;;;;;20.33;14.50;;;;;;;;;;5054055;28;20550;-66
2022/04/23 08:51:40;;;;;;;21.13;15.73;;;;;;;;;;5053777;28;20181;-66
2022/04/23 08:54:07;;;;;;;22.63;17.30;;;;;;;;;;5035771;28;20260;-66
2022/04/23 08:56:34;;;;;;;20.20;15.77;;;;;;;;;;5053673;28;20228;-67
2022/04/23 08:59:01;;;;;;;17.93;14.57;;;;;;;;;;5053750;28;20190;-65
2022/04/23 09:01:30;;;;;;;21.83;16.63;;;;;;;;;;5053798;28;20678;-66
2022/04/23 09:03:57;;;;;;;17.83;13.43;;;;;;;;;;5035563;28;20211;-66
2022/04/23 09:06:23;;;;;;;15.93;11.80;;;;;;;;;;5036008;28;20163;-66
2022/04/23 09:09:07;;;;;;;19.93;14.83;;;;;;;;;;5035920;28;20176;-65
2022/04/23 09:11:37;;;;;;;19.20;15.10;;;;;;;;;;5053513;28;20181;-66
2022/04/23 09:14:03;;;;;;;21.57;16.90;;;;;;;;;;5035356;28;20281;-66
2022/04/23 09:24:47;;;;;;;13.40;9.07;;;;;;;;;;5053649;28;20327;-65
2022/04/23 09:27:13;;;;;;;20.00;14.73;;;;;;;;;;5053503;28;20231;-65
2022/04/23 09:29:40;;;;;;;20.57;17.07;;;;;;;;;;5053501;28;20235;-65
2022/04/23 09:32:14;;;;;;;18.47;14.50;;;;;;;;;;5053206;28;20205;-66
2022/04/23 09:34:41;;;;;;;18.33;15.03;;;;;;;;;;5035357;28;20201;-66
2022/04/23 09:37:08;;;;;;;20.23;15.67;;;;;;;;;;5035229;28;20182;-66
2022/04/23 09:39:35;;;;;;;18.60;14.70;;;;;;;;;;5053059;28;20242;-67
2022/04/23 09:42:12;;;;;;;22.73;17.40;;;;;;;;;;5054995;28;20166;-66
2022/04/23 09:44:38;;;;;;;17.97;14.53;;;;;;;;;;5057202;28;20625;-66
2022/04/23 09:47:04;;;;;;;17.87;14.97;;;;;;;;;;5039233;28;20213;-66
2022/04/23 09:49:30;;;;;;;19.70;15.93;;;;;;;;;;5057105;28;20184;-66
2022/04/23 09:52:00;;;;;;;20.93;15.50;;;;;;;;;;5057129;28;20171;-66
2022/04/23 09:54:28;;;;;;;22.80;16.57;;;;;;;;;;5057253;28;20201;-66
2022/04/23 09:56:54;;;;;;;20.57;15.00;;;;;;;;;;5039261;28;20200;-66
2022/04/23 09:59:20;;;;;;;19.17;14.90;;;;;;;;;;5057034;28;20202;-66
2022/04/23 10:01:48;;;;;;;22.57;16.93;;;;;;;;;;5039291;28;20669;-66
2022/04/23 10:04:17;;;;;;;16.97;12.60;;;;;;;;;;5057079;28;20205;-66
2022/04/23 10:06:43;;;;;;;19.93;16.33;;;;;;;;;;5039081;28;20612;-67
2022/04/23 10:09:10;;;;;;;20.77;15.93;;;;;;;;;;5039292;28;20170;-66
2022/04/23 10:11:37;;;;;;;24.87;18.17;;;;;;;;;;5057212;28;20171;-64
2022/04/23 10:14:04;;;;;;;22.40;16.17;;;;;;;;;;5060110;28;20332;-66
2022/04/23 10:16:31;;;;;;;20.33;15.40;;;;;;;;;;5043666;28;20661;-67
2022/04/23 10:18:57;;;;;;;18.50;13.47;;;;;;;;;;5060817;28;20186;-66
2022/04/23 10:21:42;;;;;;;24.47;15.00;;;;;;;;;;5043331;28;20298;-66
2022/04/23 10:24:16;;;;;;;19.90;16.03;;;;;;;;;;5058014;28;20198;-66
2022/04/23 10:26:50;;;;;;;17.87;13.87;;;;;;;;;;5038936;28;20178;-67
2022/04/23 10:29:20;;;;;;;21.80;16.50;;;;;;;;;;5039075;28;20185;-66
2022/04/23 10:32:06;;;;;;;22.13;17.63;;;;;;;;;;5056964;28;20212;-67
2022/04/23 10:34:33;;;;;;;22.57;15.80;;;;;;;;;;5038519;28;20202;-65
2022/04/23 10:37:17;;;;;;;20.23;14.37;;;;;;;;;;5056561;28;20178;-65
2022/04/23 10:39:44;;;;;;;18.17;13.47;;;;;;;;;;5056425;28;20701;-65
2022/04/23 10:42:14;;;;;;;15.80;11.60;;;;;;;;;;5056751;28;20170;-65
2022/04/23 10:44:42;;;;;;;13.47;9.87;;;;;;;;;;5038364;28;20198;-65
2022/04/23 10:47:29;;;;;;;12.60;10.17;;;;;;;;;;5056247;28;20171;-65
2022/04/23 10:50:18;;;;;;;12.83;9.90;;;;;;;;;;5056540;28;20163;-66
2022/04/23 10:52:45;;;;;;;14.10;10.77;;;;;;;;;;5043519;28;20195;-65
2022/04/23 10:55:14;;;;;;;17.17;13.10;;;;;;;;;;5056021;28;20204;-65
2022/04/23 10:57:47;;;;;;;17.23;13.33;;;;;;;;;;5056112;28;20634;-65
2022/04/23 11:00:16;;;;;;;17.20;13.03;;;;;;;;;;5055873;28;20244;-66
2022/04/23 11:02:42;;;;;;;20.13;12.60;;;;;;;;;;5056186;28;20175;-67
2022/04/23 11:13:42;;;;;;;11.10;8.47;;;;;;;;;;5056129;28;20209;-65
2022/04/23 11:16:08;;;;;;;10.80;9.67;;;;;;;;;;5038173;28;20182;-65
2022/04/23 11:18:34;;;;;;;13.30;10.00;;;;;;;;;;5037847;28;20187;-65
2022/04/23 11:21:10;;;;;;;8.13;7.33;;;;;;;;;;5037697;28;20217;-64
2022/04/23 11:23:37;;;;;;;7.50;6.00;;;;;;;;;;5055839;28;20190;-63
2022/04/23 11:26:03;;;;;;;7.43;6.43;;;;;;;;;;5055874;28;20545;-63
2022/04/23 11:28:29;;;;;;;7.03;5.93;;;;;;;;;;5037577;28;20206;-65
2022/04/23 11:30:57;;;;;;;6.30;5.70;;;;;;;;;;5037566;28;20221;-63
2022/04/23 11:33:23;;;;;;;6.37;5.57;;;;;;;;;;5037504;28;20183;-65
2022/04/23 11:35:49;;;;;;;6.73;5.37;;;;;;;;;;5037420;28;20186;-65
2022/04/23 11:38:26;;;;;;;6.33;5.57;;;;;;;;;;5037490;28;20179;-65
2022/04/23 11:40:52;;;;;;;6.17;4.80;;;;;;;;;;5037338;28;20281;-65
2022/04/23 11:43:35;;;;;;;5.57;4.93;;;;;;;;;;5056434;28;20220;-65
2022/04/23 11:46:02;;;;;;;5.73;5.13;;;;;;;;;;5038795;28;20182;-63
2022/04/23 11:48:28;;;;;;;6.27;5.67;;;;;;;;;;5056644;28;20166;-65
2022/04/23 11:51:04;;;;;;;8.10;4.73;;;;;;;;;;5056947;28;20183;-65
2022/04/23 11:53:46;;;;;;;6.23;5.40;;;;;;;;;;5057080;28;20194;-64
2022/04/23 11:56:19;;;;;;;4.87;4.27;;;;;;;;;;5056631;28;20161;-65
2022/04/23 11:58:45;;;;;;;8.97;6.57;;;;;;;;;;5055088;28;20536;-64
2022/04/23 12:01:12;;;;;;;8.47;6.30;;;;;;;;;;5054734;28;20202;-65
2022/04/23 12:03:47;;;;;;;8.27;7.27;;;;;;;;;;5054436;28;20187;-65
2022/04/23 12:06:13;;;;;;;7.70;6.20;;;;;;;;;;5054365;28;20170;-65
2022/04/23 12:08:39;;;;;;;10.03;7.00;;;;;;;;;;5054832;28;20186;-65
2022/04/23 12:11:19;;;;;;;9.53;7.77;;;;;;;;;;5054482;28;20207;-66
2022/04/23 12:13:47;;;;;;;8.30;7.07;;;;;;;;;;5054930;28;20194;-65
2022/04/23 12:16:13;;;;;;;7.83;6.40;;;;;;;;;;5054496;28;20174;-65
2022/04/23 12:18:39;;;;;;;7.50;6.07;;;;;;;;;;5054848;28;20197;-62
2022/04/23 12:21:08;;;;;;;7.47;6.53;;;;;;;;;;5054467;28;20202;-63
2022/04/23 12:23:43;;;;;;;7.23;5.87;;;;;;;;;;5054392;28;20174;-63
2022/04/23 12:26:09;;;;;;;8.33;7.10;;;;;;;;;;5054512;28;20548;-64
2022/04/23 12:42:30;;;;;;;8.10;7.07;;;;;;;;;;5054563;28;20633;-64
2022/04/23 12:44:56;;;;;;;7.43;6.47;;;;;;;;;;5053855;28;20194;-64
2022/04/23 12:47:29;;;;;;;9.53;6.97;;;;;;;;;;5053922;28;20201;-65
2022/04/23 12:49:57;;;;;;;7.90;6.97;;;;;;;;;;5035940;28;20175;-64
2022/04/23 12:52:31;;;;;;;6.80;5.63;;;;;;;;;;5035874;28;20633;-64
2022/04/23 12:55:13;;;;;;;11.40;8.07;;;;;;;;;;5053980;28;20284;-64
2022/04/23 12:57:42;;;;;;;11.20;7.40;;;;;;;;;;5053670;28;20265;-63
2022/04/23 13:00:09;;;;;;;8.27;6.77;;;;;;;;;;5035508;28;20224;-63
2022/04/23 13:02:36;;;;;;;7.87;6.50;;;;;;;;;;5053542;28;20189;-63
2022/04/23 13:05:07;;;;;;;9.43;7.73;;;;;;;;;;5053249;28;20217;-63
2022/04/23 13:10:18;;;;;;;10.77;8.17;;;;;;;;;;5054112;28;20587;-64
2022/04/23 13:12:44;;;;;;;9.67;7.93;;;;;;;;;;5053646;28;20638;-64
2022/04/23 13:15:11;;;;;;;8.37;7.03;;;;;;;;;;5035357;28;20248;-64
2022/04/23 13:17:38;;;;;;;8.27;7.27;;;;;;;;;;5053492;28;20186;-64
2022/04/23 13:20:08;;;;;;;11.87;7.97;;;;;;;;;;5053331;28;20202;-64
2022/04/23 13:22:34;;;;;;;8.20;7.30;;;;;;;;;;5053222;28;20170;-64
2022/04/23 13:25:00;;;;;;;9.23;7.07;;;;;;;;;;5053312;28;20301;-65
2022/04/23 13:27:26;;;;;;;9.73;6.57;;;;;;;;;;5053541;28;20197;-64
2022/04/23 13:29:52;;;;;;;8.40;7.30;;;;;;;;;;5053088;28;20174;-64
2022/04/23 13:32:18;;;;;;;9.93;7.87;;;;;;;;;;5053258;28;20653;-65
2022/04/23 13:34:44;;;;;;;8.67;7.03;;;;;;;;;;5053091;28;20198;-65
2022/04/23 13:37:11;;;;;;;11.67;7.67;;;;;;;;;;5034946;28;20189;-64
2022/04/23 13:39:37;;;;;;;10.33;7.93;;;;;;;;;;5053026;28;20359;-64
2022/04/23 13:42:03;;;;;;;13.37;7.93;;;;;;;;;;5053094;28;20177;-64
2022/04/23 13:44:30;;;;;;;10.97;9.53;;;;;;;;;;5035046;28;20268;-65
2022/04/23 13:46:56;;;;;;;12.60;9.37;;;;;;;;;;5034912;28;20175;-64
2022/04/23 13:49:25;;;;;;;10.30;8.27;;;;;;;;;;5043904;23;20234;-64
2022/04/23 13:51:52;;;;;;;8.93;7.80;;;;;;;;;;5032971;28;20174;-65
2022/04/23 13:54:18;;;;;;;9.90;8.07;;;;;;;;;;5033321;28;20171;-65
2022/04/23 13:56:44;;;;;;;11.40;9.17;;;;;;;;;;5033196;28;20207;-65
2022/04/23 13:59:10;;;;;;;9.57;7.73;;;;;;;;;;5015229;28;20199;-63
2022/04/23 14:01:37;;;;;;;10.57;8.47;;;;;;;;;;5033126;28;20221;-65
2022/04/23 14:12:17;;;;;;;11.80;9.17;;;;;;;;;;5033353;28;20174;-65
2022/04/23 14:14:43;;;;;;;11.20;7.53;;;;;;;;;;5033156;28;20262;-66
2022/04/23 14:17:09;;;;;;;9.37;7.77;;;;;;;;;;5033466;28;20229;-64
2022/04/23 14:19:35;;;;;;;10.53;7.67;;;;;;;;;;5035647;28;20234;-66
2022/04/23 14:22:02;;;;;;;9.97;8.27;;;;;;;;;;5033153;28;20182;-65
2022/04/23 14:24:28;;;;;;;10.27;7.63;;;;;;;;;;5015245;28;20639;-65
2022/04/23 14:26:54;;;;;;;8.23;7.00;;;;;;;;;;5015282;28;20260;-65
2022/04/23 14:29:20;;;;;;;10.57;8.50;;;;;;;;;;5018820;28;20550;-65
2022/04/23 14:31:46;;;;;;;14.37;10.40;;;;;;;;;;5036749;28;20174;-64
2022/04/23 14:34:12;;;;;;;10.03;8.97;;;;;;;;;;5036630;28;20202;-65
2022/04/23 14:36:38;;;;;;;12.33;9.40;;;;;;;;;;5018837;28;20208;-66
2022/04/23 14:39:08;;;;;;;9.50;7.23;;;;;;;;;;5036624;28;20269;-65
2022/04/23 14:41:34;;;;;;;11.50;9.17;;;;;;;;;;5036600;28;20213;-65
2022/04/23 14:44:00;;;;;;;10.30;8.60;;;;;;;;;;5036720;28;20175;-66
2022/04/23 14:46:25;;;;;;;8.70;7.43;;;;;;;;;;5036846;28;20619;-65
2022/04/23 14:48:51;;;;;;;10.00;7.80;;;;;;;;;;5018586;28;20678;-66
2022/04/23 14:54:02;;;;;;;10.77;7.83;;;;;;;;;;5036776;28;20179;-65
2022/04/23 14:56:28;;;;;;;8.47;7.47;;;;;;;;;;5018315;28;20217;-65
2022/04/23 14:58:55;;;;;;;11.50;7.60;;;;;;;;;;5018391;28;20701;-65
2022/04/23 15:01:21;;;;;;;6.00;5.07;;;;;;;;;;5036184;28;20203;-65
2022/04/23 15:03:47;;;;;;;6.80;5.90;;;;;;;;;;5036043;28;20183;-65
2022/04/23 15:06:13;;;;;;;8.17;6.57;;;;;;;;;;5036095;28;20171;-65
2022/04/23 15:08:39;;;;;;;7.40;6.07;;;;;;;;;;5036099;28;20573;-65
2022/04/23 15:11:07;;;;;;;11.23;6.57;;;;;;;;;;5018834;28;20183;-66
2022/04/23 15:13:34;;;;;;;7.23;6.13;;;;;;;;;;5035750;28;20175;-65